VIAR Airport Information

Runway Information
Runway 16 Length 10791 ft width 148 ft
Elevation 757 ft Threshold 0 ft Heading 158
Runway 34 Length 10791 ft Width 148 ft
Elevation 751 ft Threshold 700 ft Heading 338
Airport Frequencies
Type APP Name APP Frequency 119.7 MHZ
Type TWR Name TWR Frequency 124.35 MHZ
Airport Navaids
Type VOR-DME Name Amritsar Frequency 115500 KHZ
Type NDB Name Amritsar Frequency 351 KHZ
Airport Weather Information & NOTAM
ADDS - METARS form results

(0138 UTC 20 July 2019)
Data provider http://aviationweather.gov/metar/data/
 
Forecast for: VIAR (AMRITSAR , IN)
Text: TAF VIAR 192300Z 2000/2009 00000KT 2500 BR FEW040 SCT100
Forecast period: 0000 to 0500 UTC 20 July 2019
Forecast type: FROM: standard forecast or significant change
Winds: calm
Visibility: 1.55 miles (2.49 km)
Ceiling: at least 12,000 feet AGL
Clouds: few clouds at 4000 feet AGL
scattered clouds at 10000 feet AGL
Weather: BR  (mist)
Text: BECMG 2005/2007 09006KT 4000 HZ -RA SCT035 BKN090
Forecast period: 0500 to 0900 UTC 20 July 2019
Forecast type: BECOMING: Conditions expected to become as follows by 0700 UTC 20 July 2019
Winds: from the E (90 degrees) at 7 MPH (6 knots; 3.1 m/s)
Visibility: 2.49 miles (4.01 km)
Ceiling: 9000 feet AGL
Clouds: scattered clouds at 3500 feet AGL
broken clouds at 9000 feet AGL
Weather: HZ -RA  (haze, light rain)